Time;durP1;ratioP1;P1;durP2;ratioP2;P2;SDS_P1;SDS_P2;PMS_P1;PMS_P2;Temp;Humidity;BMP_temperature;BMP_pressure;BME280_temperature;BME280_humidity;BME280_pressure;Samples;Min_cycle;Max_cycle;Signal;HPM_P1;HPM_P2
2022/12/09 00:00:10;;;;;;;;;;;;;;;7.09;60.60;99963.84;5305732;32;35680;-76
2022/12/09 00:03:13;;;;;;;;;;;;;;;7.12;60.39;99957.66;5317142;32;35266;-77
2022/12/09 00:06:22;;;;;;;;;;;;;;;7.24;60.13;99954.66;5307500;32;44908;-66
2022/12/09 00:09:24;;;;;;;;;;;;;;;6.92;61.27;99951.28;5319176;32;35551;-66
2022/12/09 00:12:26;;;;;;;;;;;;;;;6.86;61.16;99950.63;5308288;32;35554;-66
2022/12/09 00:15:28;;;;;;;;;;;;;;;7.03;59.60;99946.59;5303624;32;36129;-67
2022/12/09 00:18:30;;;;;;;;;;;;;;;6.43;61.75;99936.25;5319605;32;36278;-66
2022/12/09 00:21:32;;;;;;;;;;;;;;;7.10;60.36;99931.56;5306964;32;35488;-67
2022/12/09 00:24:34;;;;;;;;;;;;;;;7.08;60.26;99941.19;5320786;32;34705;-66
2022/12/09 00:27:36;;;;;;;;;;;;;;;7.26;60.05;99960.66;5306280;32;34781;-68
2022/12/09 00:30:38;;;;;;;;;;;;;;;6.83;60.02;99969.87;5320284;32;36444;-77
2022/12/09 00:33:40;;;;;;;;;;;;;;;7.15;60.07;99970.59;5304812;32;37777;-67
2022/12/09 00:36:42;;;;;;;;;;;;;;;7.09;60.35;99976.91;5306702;32;36160;-67
2022/12/09 00:39:43;;;;;;;;;;;;;;;6.86;61.63;99977.59;5320925;32;35496;-67
2022/12/09 00:42:46;;;;;;;;;;;;;;;6.86;61.62;99975.00;5284661;32;36160;-66
2022/12/09 00:45:47;;;;;;;;;;;;;;;7.19;60.61;99974.84;5313242;32;35998;-76
2022/12/09 00:48:50;;;;;;;;;;;;;;;6.88;60.87;99959.25;5306025;32;44842;-74
2022/12/09 00:51:52;;;;;;;;;;;;;;;6.62;62.33;99962.66;5321382;32;35382;-75
2022/12/09 00:54:54;;;;;;;;;;;;;;;6.85;61.96;99972.44;5305411;32;37610;-67
2022/12/09 00:57:57;;;;;;;;;;;;;;;4.85;68.05;99962.91;5306710;32;35012;-66
2022/12/09 01:00:59;;;;;;;;;;;;;;;6.04;65.72;99957.34;5319050;32;35386;-68
2022/12/09 01:04:01;;;;;;;;;;;;;;;6.86;62.12;99955.84;5306259;32;35281;-78
2022/12/09 01:07:03;;;;;;;;;;;;;;;7.04;61.69;99970.97;5322607;32;35139;-79
2022/12/09 01:10:05;;;;;;;;;;;;;;;6.46;63.44;99978.78;5302994;32;35802;-76
2022/12/09 01:13:08;;;;;;;;;;;;;;;7.05;61.68;99973.53;5320923;32;36124;-68
2022/12/09 01:16:14;;;;;;;;;;;;;;;7.19;60.40;99969.63;5306192;32;35505;-67
2022/12/09 01:19:16;;;;;;;;;;;;;;;6.63;62.44;99972.19;5291449;32;35650;-77
2022/12/09 01:22:18;;;;;;;;;;;;;;;6.53;63.75;99976.00;5321724;32;35753;-76
2022/12/09 01:25:20;;;;;;;;;;;;;;;6.99;61.65;99972.84;5304644;32;35005;-67
2022/12/09 01:28:22;;;;;;;;;;;;;;;6.88;62.11;99970.56;5321927;32;34840;-66
2022/12/09 01:31:24;;;;;;;;;;;;;;;6.96;62.10;99967.75;5305825;32;35972;-67
2022/12/09 01:34:26;;;;;;;;;;;;;;;6.29;64.08;99960.12;5321663;32;35103;-66
2022/12/09 01:37:28;;;;;;;;;;;;;;;6.98;61.96;99948.50;5308927;32;36109;-78
2022/12/09 01:40:30;;;;;;;;;;;;;;;6.24;64.11;99956.78;5303714;32;35574;-66
2022/12/09 01:43:32;;;;;;;;;;;;;;;6.73;63.03;99956.22;5297605;32;35895;-67
2022/12/09 01:46:34;;;;;;;;;;;;;;;7.01;62.07;99945.75;5302416;32;35312;-67
2022/12/09 01:49:37;;;;;;;;;;;;;;;6.86;62.20;99943.62;5321030;32;36079;-78
2022/12/09 01:52:39;;;;;;;;;;;;;;;7.32;61.12;99939.56;5301935;32;36235;-66
2022/12/09 01:55:41;;;;;;;;;;;;;;;7.65;59.87;99932.34;5316347;32;35509;-77
2022/12/09 01:58:43;;;;;;;;;;;;;;;6.91;61.85;99944.38;5310834;32;35688;-76
2022/12/09 02:01:46;;;;;;;;;;;;;;;7.04;61.83;99945.69;5304664;32;36247;-67
2022/12/09 02:04:49;;;;;;;;;;;;;;;7.27;61.36;99941.47;5321316;32;36064;-76
2022/12/09 02:07:51;;;;;;;;;;;;;;;7.03;61.48;99948.34;5304483;32;45130;-67
2022/12/09 02:10:56;;;;;;;;;;;;;;;6.87;63.00;99953.19;5322055;32;35732;-76
2022/12/09 02:13:58;;;;;;;;;;;;;;;7.35;61.30;99947.31;5303685;32;35246;-78
2022/12/09 02:17:00;;;;;;;;;;;;;;;6.64;62.49;99950.44;5311184;32;36246;-76
2022/12/09 02:20:03;;;;;;;;;;;;;;;7.36;61.28;99940.31;5316027;32;36009;-66
2022/12/09 02:23:06;;;;;;;;;;;;;;;7.35;61.02;99929.03;5304051;32;34662;-76
2022/12/09 02:26:20;;;;;;;;;;;;;;;7.32;60.90;99937.81;5322522;32;35682;-67
2022/12/09 02:29:28;;;;;;;;;;;;;;;6.98;61.74;99942.41;5303869;32;44751;-75
2022/12/09 02:32:36;;;;;;;;;;;;;;;6.33;63.48;99937.41;5320642;32;35452;-67
2022/12/09 02:35:41;;;;;;;;;;;;;;;6.86;62.35;99941.03;5308067;32;37318;-75
2022/12/09 02:38:46;;;;;;;;;;;;;;;7.51;60.41;99927.59;5301715;32;36020;-66
2022/12/09 02:41:48;;;;;;;;;;;;;;;7.00;62.39;99923.16;5306402;32;35659;-66
2022/12/09 02:44:50;;;;;;;;;;;;;;;7.07;61.17;99922.06;5286477;32;45109;-75
2022/12/09 02:47:52;;;;;;;;;;;;;;;7.61;60.39;99917.69;5321917;32;35203;-77
2022/12/09 02:50:55;;;;;;;;;;;;;;;7.39;60.72;99925.37;5305409;32;36566;-76
2022/12/09 02:53:58;;;;;;;;;;;;;;;6.70;62.86;99934.59;5301676;32;35646;-77
2022/12/09 02:57:01;;;;;;;;;;;;;;;6.95;62.22;99930.28;5307738;32;34724;-76
2022/12/09 03:00:04;;;;;;;;;;;;;;;6.51;63.77;99916.00;5301381;32;35471;-66
2022/12/09 03:03:09;;;;;;;;;;;;;;;7.08;62.51;99920.28;5320145;32;35473;-77
2022/12/09 03:06:13;;;;;;;;;;;;;;;6.48;64.61;99916.06;5292301;32;35458;-77
2022/12/09 03:09:16;;;;;;;;;;;;;;;6.59;64.74;99915.75;5316827;32;36231;-75
2022/12/09 03:12:18;;;;;;;;;;;;;;;5.83;66.31;99924.00;5305372;32;36034;-75
2022/12/09 03:15:21;;;;;;;;;;;;;;;6.77;64.14;99912.59;5309230;32;45040;-67
2022/12/09 03:18:23;;;;;;;;;;;;;;;5.67;66.36;99907.91;5315265;32;35783;-67
2022/12/09 03:21:25;;;;;;;;;;;;;;;5.53;69.10;99915.22;5300952;32;36131;-76
2022/12/09 03:24:29;;;;;;;;;;;;;;;5.58;68.18;99918.56;5317635;32;36032;-78
2022/12/09 03:27:33;;;;;;;;;;;;;;;5.39;68.92;99926.84;5304274;32;35457;-65
2022/12/09 03:30:37;;;;;;;;;;;;;;;5.85;67.87;99940.44;5317955;32;35246;-73
2022/12/09 03:33:42;;;;;;;;;;;;;;;5.23;70.54;99937.72;5303405;32;36885;-67
2022/12/09 03:36:45;;;;;;;;;;;;;;;5.32;70.28;99937.47;5304464;32;35495;-76
2022/12/09 03:39:47;;;;;;;;;;;;;;;5.50;69.17;99921.38;5315615;32;35697;-66
2022/12/09 03:43:08;;;;;;;;;;;;;;;6.30;67.06;99934.88;5282563;32;35829;-66
2022/12/09 03:46:10;;;;;;;;;;;;;;;6.64;65.16;99927.78;5317581;32;36368;-66
2022/12/09 03:49:13;;;;;;;;;;;;;;;6.23;66.33;99918.53;5304370;32;35502;-67
2022/12/09 03:52:14;;;;;;;;;;;;;;;6.07;68.47;99919.91;5313793;32;34673;-77
2022/12/09 03:55:33;;;;;;;;;;;;;;;5.83;68.80;99927.47;5308367;32;35867;-75
2022/12/09 03:58:35;;;;;;;;;;;;;;;6.70;67.05;99927.59;5300699;32;35509;-76
2022/12/09 04:01:38;;;;;;;;;;;;;;;5.66;70.36;99927.03;5319068;32;36210;-79
2022/12/09 04:04:40;;;;;;;;;;;;;;;5.83;69.96;99927.47;5302158;32;35789;-76
2022/12/09 04:07:43;;;;;;;;;;;;;;;6.56;67.39;99928.91;5320984;32;35375;-75
2022/12/09 04:10:45;;;;;;;;;;;;;;;6.37;66.77;99924.22;5304865;32;35766;-76
2022/12/09 04:13:47;;;;;;;;;;;;;;;5.84;70.18;99921.34;5308447;32;35745;-76
2022/12/09 04:16:49;;;;;;;;;;;;;;;5.68;71.42;99907.00;5319734;32;35453;-66
2022/12/09 04:19:51;;;;;;;;;;;;;;;5.80;72.18;99898.88;5303954;32;46751;-65
2022/12/09 04:22:54;;;;;;;;;;;;;;;5.91;71.90;99901.19;5321751;32;34719;-67
2022/12/09 04:25:56;;;;;;;;;;;;;;;5.86;71.95;99898.69;5312478;32;35724;-68
2022/12/09 04:28:58;;;;;;;;;;;;;;;5.29;73.72;99904.53;5322035;32;36147;-76
2022/12/09 04:32:00;;;;;;;;;;;;;;;5.49;74.59;99901.44;5306107;32;35605;-66
2022/12/09 04:35:02;;;;;;;;;;;;;;;5.33;75.38;99900.09;5303335;32;33342;-77
2022/12/09 04:38:05;;;;;;;;;;;;;;;5.53;74.42;99894.37;5315947;32;36252;-66
2022/12/09 04:41:07;;;;;;;;;;;;;;;5.90;72.71;99897.69;5303588;32;35720;-75
2022/12/09 04:44:09;;;;;;;;;;;;;;;5.65;73.73;99899.25;5292352;32;34185;-77
2022/12/09 04:47:12;;;;;;;;;;;;;;;5.55;73.89;99892.59;5305735;32;36262;-77
2022/12/09 04:50:14;;;;;;;;;;;;;;;5.81;73.13;99895.34;5320122;32;35539;-66
2022/12/09 04:53:16;;;;;;;;;;;;;;;5.78;73.52;99885.00;5304601;32;35264;-74
2022/12/09 04:56:19;;;;;;;;;;;;;;;5.86;72.46;99888.28;5307770;32;34774;-76
2022/12/09 04:59:21;;;;;;;;;;;;;;;5.57;73.99;99903.84;5317893;32;46771;-66
2022/12/09 05:02:23;;;;;;;;;;;;;;;5.29;74.82;99880.25;5307204;32;36153;-66
2022/12/09 05:05:25;;;;;;;;;;;;;;;5.15;74.98;99904.91;5321242;32;36088;-67
2022/12/09 05:08:27;;;;;;;;;;;;;;;5.32;75.12;99898.38;5302759;32;36466;-77
2022/12/09 05:11:33;;;;;;;;;;;;;;;5.50;74.43;99897.91;5322151;32;37322;-76
2022/12/09 05:14:35;;;;;;;;;;;;;;;5.42;75.26;99894.66;5306738;32;35723;-77
2022/12/09 05:17:37;;;;;;;;;;;;;;;6.07;72.73;99883.38;5306384;32;36176;-66
2022/12/09 05:20:40;;;;;;;;;;;;;;;5.57;74.33;99893.41;5321681;32;34756;-66
2022/12/09 05:23:42;;;;;;;;;;;;;;;5.91;74.12;99895.97;5303324;32;37358;-77
2022/12/09 05:26:44;;;;;;;;;;;;;;;5.72;73.64;99901.66;5319301;32;35221;-76
2022/12/09 05:29:47;;;;;;;;;;;;;;;6.22;72.82;99902.03;5304139;32;35922;-78
2022/12/09 05:32:49;;;;;;;;;;;;;;;6.55;70.20;99904.53;5321039;32;36026;-78
2022/12/09 05:35:51;;;;;;;;;;;;;;;6.07;71.65;99892.06;5308252;32;43392;-68
2022/12/09 05:38:54;;;;;;;;;;;;;;;5.44;74.45;99888.50;5304324;32;35057;-67
2022/12/09 05:41:56;;;;;;;;;;;;;;;5.81;75.23;99894.50;5310101;32;35366;-77
2022/12/09 05:44:58;;;;;;;;;;;;;;;5.50;75.25;99891.84;5295618;32;34413;-79
2022/12/09 05:48:01;;;;;;;;;;;;;;;6.05;73.83;99893.81;5321690;32;35659;-76
2022/12/09 05:51:04;;;;;;;;;;;;;;;7.06;68.82;99882.91;5308032;32;34406;-77
2022/12/09 05:54:07;;;;;;;;;;;;;;;5.88;71.56;99880.38;5319311;32;35470;-68
2022/12/09 05:57:09;;;;;;;;;;;;;;;6.17;72.56;99880.44;5310638;32;35853;-76
2022/12/09 06:00:12;;;;;;;;;;;;;;;6.63;71.41;99875.59;5305296;32;36470;-78
2022/12/09 06:03:15;;;;;;;;;;;;;;;5.78;74.20;99869.34;5321867;32;35590;-68
2022/12/09 06:06:18;;;;;;;;;;;;;;;6.90;69.86;99869.50;5310143;32;35494;-77
2022/12/09 06:09:21;;;;;;;;;;;;;;;6.70;69.57;99867.53;5320892;32;45586;-75
2022/12/09 06:12:23;;;;;;;;;;;;;;;6.01;71.93;99873.09;5304685;32;34845;-78
2022/12/09 06:15:25;;;;;;;;;;;;;;;6.89;68.77;99859.97;5315675;32;36167;-77
2022/12/09 06:18:34;;;;;;;;;;;;;;;6.66;69.23;99857.22;5315326;32;35708;-69
2022/12/09 06:21:40;;;;;;;;;;;;;;;6.37;71.20;99869.41;5303583;32;35876;-69
2022/12/09 06:24:42;;;;;;;;;;;;;;;6.96;69.91;99869.31;5320540;32;35479;-77
2022/12/09 06:27:44;;;;;;;;;;;;;;;7.49;67.13;99858.81;5303179;32;35395;-76
2022/12/09 06:30:46;;;;;;;;;;;;;;;7.19;68.58;99859.84;5322326;32;35350;-75
2022/12/09 06:33:49;;;;;;;;;;;;;;;7.79;66.41;99853.38;5305009;32;35565;-66
2022/12/09 06:36:57;;;;;;;;;;;;;;;7.60;66.64;99858.44;5309081;32;46050;-68
2022/12/09 06:39:58;;;;;;;;;;;;;;;7.40;68.19;99861.72;5321496;32;35977;-79
2022/12/09 06:43:01;;;;;;;;;;;;;;;7.47;66.91;99858.00;5284674;32;36116;-78
2022/12/09 06:46:09;;;;;;;;;;;;;;;7.94;65.35;99854.59;5319514;32;35900;-68
2022/12/09 06:49:11;;;;;;;;;;;;;;;8.04;64.71;99855.94;5301927;32;36277;-66
2022/12/09 06:52:14;;;;;;;;;;;;;;;7.91;65.43;99863.41;5321781;32;35368;-77
2022/12/09 06:55:16;;;;;;;;;;;;;;;7.93;66.15;99860.75;5313309;32;35368;-76
2022/12/09 06:58:18;;;;;;;;;;;;;;;8.20;64.34;99857.09;5308993;32;35855;-78
2022/12/09 07:01:21;;;;;;;;;;;;;;;8.02;64.70;99853.41;5322817;32;44739;-67
2022/12/09 07:04:24;;;;;;;;;;;;;;;7.64;66.22;99851.31;5307417;32;36349;-76
2022/12/09 07:07:27;;;;;;;;;;;;;;;7.60;66.54;99851.44;5327744;32;35471;-77
2022/12/09 07:10:29;;;;;;;;;;;;;;;7.31;67.77;99854.22;5316256;32;36352;-75
2022/12/09 07:13:32;;;;;;;;;;;;;;;7.40;68.19;99853.88;5328400;32;34856;-77
2022/12/09 07:16:35;;;;;;;;;;;;;;;7.48;67.68;99849.25;5314372;32;34713;-66
2022/12/09 07:19:37;;;;;;;;;;;;;;;7.30;68.52;99847.28;5314713;32;35816;-68
2022/12/09 07:22:39;;;;;;;;;;;;;;;6.90;69.23;99848.59;5332151;32;35341;-67
2022/12/09 07:25:41;;;;;;;;;;;;;;;6.99;70.07;99840.47;5315595;32;34442;-67
2022/12/09 07:28:45;;;;;;;;;;;;;;;7.27;69.43;99834.28;5330311;32;35510;-75
2022/12/09 07:31:48;;;;;;;;;;;;;;;6.98;70.79;99837.91;5315882;32;35023;-68
2022/12/09 07:34:50;;;;;;;;;;;;;;;7.62;68.33;99838.31;5329840;32;43836;-74
2022/12/09 07:37:54;;;;;;;;;;;;;;;7.56;68.16;99849.84;5320238;32;35520;-66
2022/12/09 07:40:56;;;;;;;;;;;;;;;7.79;66.83;99845.53;5318117;32;35283;-67
2022/12/09 07:43:58;;;;;;;;;;;;;;;7.80;66.80;99842.88;5305655;32;35138;-68
2022/12/09 07:47:00;;;;;;;;;;;;;;;7.72;67.43;99836.19;5320144;32;35240;-75
2022/12/09 07:50:03;;;;;;;;;;;;;;;7.35;68.38;99840.13;5335485;32;36305;-77
2022/12/09 07:53:08;;;;;;;;;;;;;;;7.64;68.09;99843.47;5320296;32;36155;-67
2022/12/09 07:56:13;;;;;;;;;;;;;;;7.76;67.89;99837.81;5329196;32;35957;-77
2022/12/09 07:59:15;;;;;;;;;;;;;;;7.73;67.41;99836.16;5333030;32;36576;-68
2022/12/09 08:02:18;;;;;;;;;;;;;;;7.30;69.30;99837.66;5317817;32;36620;-76
2022/12/09 08:05:20;;;;;;;;;;;;;;;7.46;68.87;99827.50;5337996;32;44701;-75
2022/12/09 08:08:22;;;;;;;;;;;;;;;7.49;68.79;99837.88;5318054;32;35064;-76
2022/12/09 08:11:25;;;;;;;;;;;;;;;7.29;70.07;99835.97;5336479;32;36085;-76
2022/12/09 08:14:28;;;;;;;;;;;;;;;7.53;68.79;99826.37;5322903;32;34709;-66
2022/12/09 08:17:31;;;;;;;;;;;;;;;7.30;68.77;99828.97;5322585;32;35520;-77
2022/12/09 08:20:33;;;;;;;;;;;;;;;7.58;69.05;99816.63;5333627;32;36425;-77
2022/12/09 08:23:36;;;;;;;;;;;;;;;7.55;68.65;99816.75;5319849;32;36019;-76
2022/12/09 08:26:39;;;;;;;;;;;;;;;7.71;67.83;99816.19;5333378;32;35950;-77
2022/12/09 08:29:42;;;;;;;;;;;;;;;7.51;69.17;99816.91;5322843;32;34875;-66
2022/12/09 08:32:44;;;;;;;;;;;;;;;7.55;69.17;99808.91;5333323;32;36026;-67
2022/12/09 08:35:46;;;;;;;;;;;;;;;7.53;70.01;99808.09;5320902;32;35142;-67
2022/12/09 08:38:48;;;;;;;;;;;;;;;7.86;68.02;99806.03;5324707;32;36120;-67
2022/12/09 08:41:50;;;;;;;;;;;;;;;7.68;68.81;99809.31;5321078;32;44566;-69
2022/12/09 08:44:53;;;;;;;;;;;;;;;7.66;68.87;99799.81;5305257;32;36576;-75
2022/12/09 08:48:03;;;;;;;;;;;;;;;8.01;67.68;99785.44;5333343;32;35248;-67
2022/12/09 08:51:05;;;;;;;;;;;;;;;7.93;67.69;99793.56;5318608;32;34585;-67
2022/12/09 08:54:07;;;;;;;;;;;;;;;7.62;69.15;99800.84;5332033;32;35196;-76
2022/12/09 08:57:10;;;;;;;;;;;;;;;8.03;67.36;99792.28;5318773;32;37022;-77
2022/12/09 09:00:12;;;;;;;;;;;;;;;7.54;68.56;99793.28;5316892;32;35584;-68
2022/12/09 09:03:15;;;;;;;;;;;;;;;7.86;68.16;99786.88;5332680;32;35427;-68
2022/12/09 09:06:18;;;;;;;;;;;;;;;7.24;70.23;99776.91;5319898;32;36207;-67
2022/12/09 09:09:20;;;;;;;;;;;;;;;7.87;68.73;99770.25;5331119;32;44554;-67
2022/12/09 09:12:23;;;;;;;;;;;;;;;7.62;69.94;99767.69;5316687;32;36183;-68
2022/12/09 09:15:25;;;;;;;;;;;;;;;7.73;69.69;99762.03;5330873;32;34752;-67
2022/12/09 09:18:27;;;;;;;;;;;;;;;7.94;68.45;99760.41;5322326;32;35336;-77
2022/12/09 09:21:30;;;;;;;;;;;;;;;7.41;70.67;99755.41;5322086;32;35389;-67
2022/12/09 09:24:32;;;;;;;;;;;;;;;8.02;67.97;99748.72;5335692;32;35213;-67
2022/12/09 09:27:34;;;;;;;;;;;;;;;8.08;67.37;99745.88;5317361;32;34638;-70
2022/12/09 09:30:37;;;;;;;;;;;;;;;8.21;66.83;99753.25;5334564;32;35615;-68
2022/12/09 09:33:39;;;;;;;;;;;;;;;8.36;66.74;99745.66;5318557;32;35205;-67
2022/12/09 09:36:41;;;;;;;;;;;;;;;8.09;67.94;99750.19;5332694;32;35469;-67
2022/12/09 09:39:43;;;;;;;;;;;;;;;8.21;67.18;99743.63;5323851;32;36132;-78
2022/12/09 09:42:49;;;;;;;;;;;;;;;7.39;68.96;99731.91;5302411;32;35701;-77
2022/12/09 09:45:52;;;;;;;;;;;;;;;7.57;70.65;99739.09;5328501;32;45073;-67
2022/12/09 09:48:54;;;;;;;;;;;;;;;7.77;69.59;99738.34;5319555;32;35767;-69
2022/12/09 09:51:57;;;;;;;;;;;;;;;8.38;67.50;99719.41;5335481;32;34884;-79
2022/12/09 09:54:59;;;;;;;;;;;;;;;8.61;66.36;99723.69;5317497;32;34724;-76
2022/12/09 09:58:06;;;;;;;;;;;;;;;8.65;65.85;99723.53;5330789;32;34647;-79
2022/12/09 10:01:10;;;;;;;;;;;;;;;7.96;68.11;99722.78;5321797;32;35620;-66
2022/12/09 10:04:19;;;;;;;;;;;;;;;8.14;68.14;99711.59;5318199;32;35546;-67
2022/12/09 10:07:24;;;;;;;;;;;;;;;7.59;71.59;99713.72;5328444;32;44433;-68
2022/12/09 10:10:53;;;;;;;;;;;;;;;7.99;70.04;99703.50;5323298;32;36122;-69
2022/12/09 10:14:08;;;;;;;;;;;;;;;7.59;71.50;99697.19;5311786;32;44354;-78
2022/12/09 10:17:10;;;;;;;;;;;;;;;7.69;71.72;99679.38;5330513;32;35578;-76
2022/12/09 10:20:15;;;;;;;;;;;;;;;7.46;71.02;99681.09;5319165;32;36002;-78
2022/12/09 10:23:18;;;;;;;;;;;;;;;7.98;70.16;99660.75;5328725;32;35322;-76
2022/12/09 10:26:27;;;;;;;;;;;;;;;8.22;68.42;99663.31;5312937;32;47167;-76
2022/12/09 10:29:39;;;;;;;;;;;;;;;7.41;71.98;99646.44;5335156;32;35002;-76
2022/12/09 10:32:42;;;;;;;;;;;;;;;7.49;71.31;99633.09;5324637;32;36118;-66
2022/12/09 10:35:45;;;;;;;;;;;;;;;7.37;71.63;99636.16;5317622;32;36073;-67
2022/12/09 10:38:47;;;;;;;;;;;;;;;6.58;76.06;99612.03;5330636;32;35992;-75
2022/12/09 10:45:14;;;;;;;;;;;;;;;7.41;72.61;99596.78;5322310;32;35397;-79
2022/12/09 10:48:26;;;;;;;;;;;;;;;8.12;69.25;99593.03;5318732;32;35465;-68
2022/12/09 10:51:34;;;;;;;;;;;;;;;7.08;74.00;99575.38;5316549;32;35497;-67
2022/12/09 10:54:37;;;;;;;;;;;;;;;8.06;71.69;99571.50;5333487;32;34671;-79
2022/12/09 10:57:40;;;;;;;;;;;;;;;8.01;71.66;99569.06;5317202;32;35586;-74
2022/12/09 11:00:43;;;;;;;;;;;;;;;6.87;75.18;99560.50;5332946;32;35494;-68
2022/12/09 11:03:54;;;;;;;;;;;;;;;7.39;74.69;99554.13;5320247;32;34942;-77
2022/12/09 11:06:59;;;;;;;;;;;;;;;7.26;74.84;99552.91;5322598;32;44492;-78
2022/12/09 11:10:05;;;;;;;;;;;;;;;7.06;74.74;99562.38;5327517;32;37664;-76
2022/12/09 11:13:12;;;;;;;;;;;;;;;7.41;73.29;99551.47;5315384;32;35009;-78
2022/12/09 11:16:14;;;;;;;;;;;;;;;7.20;73.03;99529.63;5317552;32;35272;-77
2022/12/09 11:19:16;;;;;;;;;;;;;;;6.86;76.95;99532.69;5324083;32;34734;-69
2022/12/09 11:22:32;;;;;;;;;;;;;;;7.06;75.71;99515.34;5330631;32;33814;-66
2022/12/09 11:25:35;;;;;;;;;;;;;;;7.27;73.80;99512.78;5322885;32;35951;-67
2022/12/09 11:28:38;;;;;;;;;;;;;;;7.77;73.10;99515.13;5320709;32;35305;-67
2022/12/09 11:31:41;;;;;;;;;;;;;;;6.75;76.40;99520.84;5336013;32;34850;-68
2022/12/09 11:34:44;;;;;;;;;;;;;;;7.26;75.31;99526.78;5322376;32;35253;-68
2022/12/09 11:37:46;;;;;;;;;;;;;;;7.75;72.10;99530.91;5335138;32;35012;-68
2022/12/09 11:41:03;;;;;;;;;;;;;;;6.95;76.54;99521.87;5320520;32;35346;-69
2022/12/09 11:44:32;;;;;;;;;;;;;;;7.38;73.46;99510.63;5303004;32;34844;-66
2022/12/09 11:47:41;;;;;;;;;;;;;;;7.23;74.50;99512.06;5332103;32;37822;-76
2022/12/09 11:51:03;;;;;;;;;;;;;;;7.63;74.52;99505.25;5317815;32;36051;-77
2022/12/09 11:54:10;;;;;;;;;;;;;;;7.49;74.59;99503.19;5332319;32;35368;-66
2022/12/09 11:57:16;;;;;;;;;;;;;;;7.44;74.50;99491.22;5318588;32;35714;-66
2022/12/09 12:00:22;;;;;;;;;;;;;;;8.00;72.43;99494.09;5323774;32;35419;-67
2022/12/09 12:03:27;;;;;;;;;;;;;;;7.05;74.58;99492.72;5334427;32;45597;-66
2022/12/09 12:06:48;;;;;;;;;;;;;;;7.14;74.68;99496.75;5317380;32;35425;-76
2022/12/09 12:09:55;;;;;;;;;;;;;;;7.13;73.49;99500.25;5335491;32;43269;-77
2022/12/09 12:13:35;;;;;;;;;;;;;;;6.50;78.66;99478.28;5320168;32;35743;-67
2022/12/09 12:16:43;;;;;;;;;;;;;;;7.32;75.30;99454.19;5294974;32;34955;-76
2022/12/09 12:19:47;;;;;;;;;;;;;;;6.61;77.09;99485.72;5315145;32;35093;-79
2022/12/09 12:22:59;;;;;;;;;;;;;;;6.74;77.38;99476.53;5320419;32;35488;-76
2022/12/09 12:26:10;;;;;;;;;;;;;;;7.33;74.09;99468.13;5334105;32;35325;-77
2022/12/09 12:29:16;;;;;;;;;;;;;;;6.79;76.91;99466.78;5323706;32;35847;-68
2022/12/09 12:32:33;;;;;;;;;;;;;;;7.70;71.51;99471.84;5318326;32;35326;-66
2022/12/09 12:35:54;;;;;;;;;;;;;;;7.24;74.07;99460.66;5334360;32;34982;-76
2022/12/09 12:39:12;;;;;;;;;;;;;;;7.90;70.97;99447.44;5317010;32;44570;-68
2022/12/09 12:42:20;;;;;;;;;;;;;;;8.05;71.41;99445.03;5313334;32;35921;-77
2022/12/09 12:49:00;;;;;;;;;;;;;;;7.40;72.38;99435.56;5315091;32;35605;-78
2022/12/09 12:52:02;;;;;;;;;;;;;;;7.57;73.47;99435.75;5331545;32;35094;-77
2022/12/09 12:55:15;;;;;;;;;;;;;;;7.72;72.04;99436.00;5319078;32;35567;-77
2022/12/09 12:58:17;;;;;;;;;;;;;;;6.99;75.20;99440.72;5318551;32;35582;-77
2022/12/09 13:01:21;;;;;;;;;;;;;;;7.77;72.49;99439.28;5325144;32;37206;-78
2022/12/09 13:04:25;;;;;;;;;;;;;;;6.17;77.91;99442.06;5317711;32;45380;-66
2022/12/09 13:07:26;;;;;;;;;;;;;;;6.64;78.43;99430.81;5329018;32;35214;-67
2022/12/09 13:11:01;;;;;;;;;;;;;;;6.63;78.48;99423.84;5314011;32;36053;-78
2022/12/09 13:14:05;;;;;;;;;;;;;;;7.06;75.59;99418.66;5308862;32;35848;-68
2022/12/09 13:17:09;;;;;;;;;;;;;;;6.63;78.28;99421.25;5318036;32;35361;-69
2022/12/09 13:20:12;;;;;;;;;;;;;;;7.36;74.05;99420.94;5312844;32;36096;-77
2022/12/09 13:23:33;;;;;;;;;;;;;;;7.21;75.52;99403.25;5330039;32;36305;-77
2022/12/09 13:27:13;;;;;;;;;;;;;;;7.67;73.21;99404.84;5314417;32;35477;-79
2022/12/09 13:30:17;;;;;;;;;;;;;;;8.11;69.52;99413.38;5272062;33;34777;-76
2022/12/09 13:33:37;;;;;;;;;;;;;;;7.59;72.11;99415.59;5286110;33;35918;-69
2022/12/09 13:36:40;;;;;;;;;;;;;;;7.18;73.04;99419.09;5317413;32;34698;-77
2022/12/09 13:39:48;;;;;;;;;;;;;;;7.49;72.22;99403.84;5327485;32;35625;-67
2022/12/09 13:42:51;;;;;;;;;;;;;;;7.31;73.76;99413.28;5291319;32;43907;-75
2022/12/09 13:45:57;;;;;;;;;;;;;;;8.15;69.77;99395.75;5320490;32;35628;-76
2022/12/09 13:49:10;;;;;;;;;;;;;;;6.88;75.30;99401.09;5323566;32;35909;-79
2022/12/09 13:52:12;;;;;;;;;;;;;;;6.65;75.64;99395.94;5311687;32;37139;-68
2022/12/09 13:55:40;;;;;;;;;;;;;;;6.82;77.17;99390.91;5326828;32;35271;-80
2022/12/09 13:58:51;;;;;;;;;;;;;;;7.01;76.81;99397.09;5312264;32;36045;-68
2022/12/09 14:02:00;;;;;;;;;;;;;;;6.87;76.39;99394.19;5316677;32;44424;-67
2022/12/09 14:05:08;;;;;;;;;;;;;;;6.86;76.65;99387.25;5320182;32;35834;-67
2022/12/09 14:08:21;;;;;;;;;;;;;;;6.63;76.76;99389.91;5314428;32;36422;-68
2022/12/09 14:11:35;;;;;;;;;;;;;;;7.00;73.86;99391.94;5325655;32;45090;-76
2022/12/09 14:14:51;;;;;;;;;;;;;;;7.07;75.87;99391.63;5313670;32;36630;-77
2022/12/09 14:17:57;;;;;;;;;;;;;;;7.07;75.55;99381.16;5310313;32;44836;-75
2022/12/09 14:21:17;;;;;;;;;;;;;;;7.95;71.71;99365.22;5322922;32;33822;-71
2022/12/09 14:24:19;;;;;;;;;;;;;;;7.38;74.13;99373.81;5313712;32;36284;-67
2022/12/09 14:27:28;;;;;;;;;;;;;;;7.99;72.27;99366.81;5326271;32;45008;-67
2022/12/09 14:30:33;;;;;;;;;;;;;;;6.80;77.43;99356.16;5313440;32;35617;-77
2022/12/09 14:33:35;;;;;;;;;;;;;;;7.76;74.67;99364.34;5324872;32;36230;-76
2022/12/09 14:36:37;;;;;;;;;;;;;;;8.44;70.36;99364.78;5317486;32;35919;-69
2022/12/09 14:40:02;;;;;;;;;;;;;;;7.66;71.30;99363.03;5314200;32;35746;-78
2022/12/09 14:43:04;;;;;;;;;;;;;;;6.49;75.78;99352.13;5302659;32;36072;-67
2022/12/09 14:46:25;;;;;;;;;;;;;;;7.59;74.64;99338.91;5308409;32;36171;-68
2022/12/09 14:49:28;;;;;;;;;;;;;;;6.80;77.13;99335.25;5320919;32;46478;-67
2022/12/09 14:52:30;;;;;;;;;;;;;;;8.10;71.58;99322.66;5315728;32;35424;-67
2022/12/09 14:55:36;;;;;;;;;;;;;;;6.51;77.66;99326.00;5309683;32;34808;-77
2022/12/09 14:58:38;;;;;;;;;;;;;;;7.86;73.65;99321.19;5319041;32;35831;-76
2022/12/09 15:02:07;;;;;;;;;;;;;;;7.55;73.18;99306.00;5307200;32;36372;-68
2022/12/09 15:05:14;;;;;;;;;;;;;;;6.12;79.67;99300.53;5312794;32;38344;-79
2022/12/09 15:08:36;;;;;;;;;;;;;;;6.62;79.29;99289.84;5310527;32;36240;-67
2022/12/09 15:11:38;;;;;;;;;;;;;;;6.85;77.47;99293.31;5309118;32;36434;-69
2022/12/09 15:14:40;;;;;;;;;;;;;;;6.92;75.95;99295.59;5323926;32;34725;-67
2022/12/09 15:17:48;;;;;;;;;;;;;;;7.25;76.94;99295.94;5309157;32;35343;-76
2022/12/09 15:20:53;;;;;;;;;;;;;;;7.06;74.76;99301.09;5320428;32;44850;-70
2022/12/09 15:23:56;;;;;;;;;;;;;;;6.96;75.84;99294.56;5309091;32;35514;-76
2022/12/09 15:26:59;;;;;;;;;;;;;;;8.11;72.63;99274.66;5305635;32;35333;-78
2022/12/09 15:30:13;;;;;;;;;;;;;;;8.24;69.91;99271.44;5323594;32;36896;-68
2022/12/09 15:33:19;;;;;;;;;;;;;;;8.03;72.15;99276.75;5308145;32;35637;-68
2022/12/09 15:36:25;;;;;;;;;;;;;;;8.60;69.53;99271.50;5319848;32;45272;-77
2022/12/09 15:39:31;;;;;;;;;;;;;;;7.60;72.70;99262.19;5309107;32;36146;-76
2022/12/09 15:42:33;;;;;;;;;;;;;;;7.35;75.09;99254.56;5298215;32;35527;-69
2022/12/09 15:45:35;;;;;;;;;;;;;;;7.42;75.55;99258.62;5307702;32;34781;-68
2022/12/09 15:48:39;;;;;;;;;;;;;;;7.91;72.23;99256.38;5310228;32;35392;-67
2022/12/09 15:51:41;;;;;;;;;;;;;;;8.06;73.01;99241.75;5310231;32;36173;-76
2022/12/09 15:54:43;;;;;;;;;;;;;;;7.14;76.24;99247.66;5306290;32;35613;-78
2022/12/09 15:57:45;;;;;;;;;;;;;;;8.49;70.05;99229.25;5325233;32;36876;-70
2022/12/09 16:00:47;;;;;;;;;;;;;;;7.66;74.78;99224.41;5306149;32;35804;-77
2022/12/09 16:03:50;;;;;;;;;;;;;;;7.29;76.00;99215.63;5310969;32;36105;-76
2022/12/09 16:06:54;;;;;;;;;;;;;;;8.40;71.14;99214.84;5319753;32;44635;-68
2022/12/09 16:10:02;;;;;;;;;;;;;;;8.27;72.03;99219.78;5306665;32;35975;-68
2022/12/09 16:13:07;;;;;;;;;;;;;;;8.11;72.60;99218.81;5326703;32;35318;-77
2022/12/09 16:16:25;;;;;;;;;;;;;;;7.17;75.99;99226.63;5310967;32;37606;-68
2022/12/09 16:19:30;;;;;;;;;;;;;;;6.83;77.69;99214.13;5318005;32;46019;-67
2022/12/09 16:22:40;;;;;;;;;;;;;;;7.82;75.62;99201.88;5313256;32;35943;-78